Terminal Aerodrome Forecast
Issued by NWS

Home | Current Version | Previous Version | Text Only | Print | Product List | Glossary On
Versions: 1 2 3 4 5 6 7 8 9 10 11 12 13 14 15 16 17 18 19
316
FTUS44 KTSA 270928 AAA
TAFXNA
TAF AMD
KXNA 270928Z 2709/2806 04008KT P6SM VCTS BKN050CB BKN100
      TEMPO 2709/2711 3SM TSRA
     FM271100 VRB05KT 4SM BR VCSH BKN006 BKN015
     FM271500 32009KT P6SM BKN015 BKN025
     FM280100 35003KT P6SM BKN025=

USA.gov is the U.S. government's official web portal to all federal, state and local government web resources and services.